Portada
METAR-TAF:

METAR-TAF

Aeropuertos :

Aeropuerto de Rieti

Rieti, Italia

latitud: 42-25N, longitud: 012-51E, altitud: 389 m

Observación

El informe se hizo hace 22 minutos, a las 11:50 UTC
Viento 4 kt del norte-noroeste
Temperatura 10°C
Humedad 21%
Presión 1013 hPa
Visibilidad 10 km o más
sin nubes por debajo de 1500 m y sin presencia de cumulonimbus.

METAR: LIQN 271150Z 33004KT CAVOK 10/M11 Q1013

Hora: 13:12 (12:12 UTC)


TAF: falta

Observaciones y pronósticos meteorológicos de más de 4000 aeropuertos (mensajes METAR y TAF).

Los puntos amarillos y rojos representan las estaciones disponibles.

Ponga el ratón en el punto deseado para ver el nombre de la estación.

Haga clic para ver las observaciones y los pronósticos meteorológicos.

Para cambiar el mapa : haga clic en los botones verdes con una cruz de color negro para hacer un zoom, en el botón verde con un guión para alejar o en las flechas verdes para mapas adyacentes.


METAR-TAF: